Wetterdaten: Woche 29.05.06 - 04.06.06 (KW22)
Datum Zeit Temperatur Luftfeuchte Luftdruck Niederschlag Wind Richtung Sonne Solar Taupunkt Windchill
29.05.2006 00:00 14.1 C 87 % 1018.7 hPa 0.0 l/m 0.3 km/h (0 Bft) O-SO 0.00 h 0 W/m 11.9 C 14.1 C
29.05.2006 01:00 13.8 C 88 % 1018.0 hPa 0.0 l/m 0.5 km/h (0 Bft) O-SO 0.00 h 0 W/m 11.9 C 13.8 C
29.05.2006 02:00 13.7 C 88 % 1017.6 hPa 0.0 l/m 0.0 km/h (0 Bft) N 0.00 h 0 W/m 11.7 C 13.7 C
29.05.2006 03:00 13.2 C 88 % 1016.7 hPa 0.0 l/m 0.6 km/h (0 Bft) O-SO 0.00 h 0 W/m 11.3 C 13.2 C
29.05.2006 04:00 12.8 C 84 % 1016.4 hPa 0.0 l/m 4.1 km/h (1 Bft) SO 0.00 h 0 W/m 10.1 C 12.8 C
29.05.2006 05:00 11.7 C 79 % 1015.9 hPa 0.0 l/m 4.6 km/h (1 Bft) S-SO 0.00 h 3 W/m 8.2 C 11.7 C
29.05.2006 06:00 11.0 C 86 % 1016.0 hPa 0.0 l/m 0.6 km/h (0 Bft) S-SO 0.00 h 14 W/m 8.8 C 11.0 C
29.05.2006 07:00 11.0 C 86 % 1015.5 hPa 0.0 l/m 0.1 km/h (0 Bft) N 0.00 h 35 W/m 8.8 C 11.0 C
29.05.2006 08:00 11.2 C 87 % 1014.9 hPa 0.7 l/m 0.0 km/h (0 Bft) N 0.00 h 84 W/m 9.1 C 11.2 C
29.05.2006 09:00 11.6 C 88 % 1013.8 hPa 0.0 l/m 0.0 km/h (0 Bft) N 0.00 h 111 W/m 9.5 C 11.6 C
29.05.2006 10:00 11.6 C 89 % 1012.5 hPa 1.6 l/m 0.0 km/h (0 Bft) N 0.00 h 117 W/m 9.8 C 11.6 C
29.05.2006 11:00 11.4 C 96 % 1011.4 hPa 1.6 l/m 0.0 km/h (0 Bft) N 0.00 h 103 W/m 10.8 C 11.4 C
29.05.2006 12:00 11.2 C 97 % 1010.0 hPa 5.2 l/m 0.8 km/h (0 Bft) W-NW 0.00 h 108 W/m 10.8 C 11.2 C
29.05.2006 13:00 11.3 C 99 % 1009.7 hPa 2.6 l/m 0.7 km/h (0 Bft) NW 0.00 h 104 W/m 11.1 C 11.3 C
29.05.2006 14:00 10.9 C 93 % 1009.9 hPa 2.3 l/m 0.8 km/h (0 Bft) N-NW 0.07 h 189 W/m 9.7 C 10.9 C
29.05.2006 15:00 10.7 C 87 % 1011.1 hPa 0.0 l/m 1.4 km/h (1 Bft) W-NW 0.00 h 163 W/m 8.6 C 10.7 C
29.05.2006 16:00 10.1 C 95 % 1012.5 hPa 0.3 l/m 4.4 km/h (1 Bft) W-NW 0.00 h 109 W/m 9.3 C 10.0 C
29.05.2006 17:00 10.4 C 90 % 1012.4 hPa 0.0 l/m 1.1 km/h (1 Bft) W-NW 0.10 h 244 W/m 8.8 C 10.4 C
29.05.2006 18:00 10.8 C 81 % 1011.9 hPa 0.0 l/m 5.1 km/h (1 Bft) W-NW 0.10 h 160 W/m 7.7 C 10.8 C
29.05.2006 19:00 10.8 C 85 % 1011.9 hPa 0.0 l/m 0.1 km/h (0 Bft) N 0.13 h 95 W/m 8.4 C 10.8 C
29.05.2006 20:00 10.3 C 86 % 1011.7 hPa 0.0 l/m 0.2 km/h (0 Bft) W-SW 0.05 h 31 W/m 8.1 C 10.3 C
29.05.2006 21:00 9.9 C 83 % 1011.7 hPa 0.0 l/m 15.3 km/h (3 Bft) W-NW 0.00 h 6 W/m 7.2 C 8.8 C
29.05.2006 22:00 9.0 C 85 % 1012.1 hPa 0.3 l/m 16.0 km/h (3 Bft) W-NW 0.00 h 0 W/m 6.6 C 6.7 C
29.05.2006 23:00 8.2 C 91 % 1012.2 hPa 0.7 l/m 9.3 km/h (2 Bft) W-NW 0.00 h 0 W/m 6.8 C 6.8 C
30.05.2006 00:00 8.0 C 91 % 1012.2 hPa 0.0 l/m 5.5 km/h (1 Bft) NW 0.00 h 0 W/m 6.7 C 7.2 C
30.05.2006 01:00 7.8 C 93 % 1012.2 hPa 0.0 l/m 3.5 km/h (1 Bft) W-NW 0.00 h 0 W/m 6.7 C 7.3 C
30.05.2006 02:00 7.8 C 90 % 1011.3 hPa 0.0 l/m 9.7 km/h (2 Bft) W-NW 0.00 h 0 W/m 6.2 C 6.3 C
30.05.2006 03:00 7.7 C 86 % 1011.3 hPa 0.0 l/m 16.9 km/h (3 Bft) NW 0.00 h 0 W/m 5.5 C 5.2 C
30.05.2006 04:00 5.8 C 92 % 1012.4 hPa 5.9 l/m 15.2 km/h (3 Bft) NW 0.00 h 0 W/m 4.6 C 3.2 C
30.05.2006 05:00 5.4 C 99 % 1012.7 hPa 0.3 l/m 6.1 km/h (2 Bft) W-NW 0.00 h 2 W/m 5.3 C 4.3 C
30.05.2006 06:00 5.8 C 100 % 1013.6 hPa 0.0 l/m 1.8 km/h (1 Bft) NW 0.00 h 44 W/m 5.8 C 5.5 C
30.05.2006 07:00 6.4 C 93 % 1013.5 hPa 0.0 l/m 7.7 km/h (2 Bft) W-NW 0.37 h 172 W/m 5.4 C 5.0 C
30.05.2006 08:00 6.6 C 87 % 1014.0 hPa 0.0 l/m 13.1 km/h (3 Bft) NW 0.00 h 178 W/m 4.6 C 4.0 C
30.05.2006 09:00 7.3 C 80 % 1013.9 hPa 0.0 l/m 14.5 km/h (3 Bft) W-NW 0.10 h 246 W/m 4.0 C 4.9 C
30.05.2006 10:00 7.4 C 75 % 1014.4 hPa 0.0 l/m 18.7 km/h (3 Bft) W-NW 0.37 h 382 W/m 3.3 C 4.3 C
30.05.2006 11:00 8.7 C 65 % 1013.6 hPa 0.0 l/m 22.1 km/h (4 Bft) W-NW 0.50 h 479 W/m 2.5 C 5.7 C
30.05.2006 12:00 9.3 C 60 % 1013.4 hPa 0.0 l/m 21.3 km/h (4 Bft) W-NW 0.57 h 492 W/m 1.9 C 6.5 C
30.05.2006 13:00 8.4 C 78 % 1014.3 hPa 0.3 l/m 16.1 km/h (3 Bft) W-NW 0.53 h 527 W/m 4.6 C 6.1 C
30.05.2006 14:00 10.1 C 69 % 1013.7 hPa 0.0 l/m 17.4 km/h (3 Bft) W-NW 0.40 h 505 W/m 4.5 C 8.5 C
30.05.2006 15:00 10.6 C 60 % 1013.1 hPa 0.0 l/m 20.6 km/h (4 Bft) NW 0.63 h 578 W/m 3.1 C 9.9 C
30.05.2006 16:00 11.9 C 54 % 1013.1 hPa 0.0 l/m 20.2 km/h (4 Bft) NW 0.77 h 601 W/m 2.8 C 11.9 C
30.05.2006 17:00 10.6 C 63 % 1013.4 hPa 0.3 l/m 22.3 km/h (4 Bft) W-NW 0.53 h 326 W/m 3.5 C 9.3 C
30.05.2006 18:00 10.7 C 72 % 1013.9 hPa 0.0 l/m 6.8 km/h (2 Bft) W-NW 0.83 h 364 W/m 5.8 C 10.7 C
30.05.2006 19:00 10.2 C 67 % 1014.0 hPa 0.0 l/m 9.1 km/h (2 Bft) NW 0.30 h 134 W/m 4.5 C 9.7 C
30.05.2006 20:00 9.7 C 69 % 1014.1 hPa 0.0 l/m 4.4 km/h (1 Bft) W-NW 0.30 h 46 W/m 4.3 C 9.2 C
30.05.2006 21:00 8.2 C 76 % 1014.6 hPa 0.0 l/m 6.3 km/h (2 Bft) W-NW 0.03 h 8 W/m 4.3 C 7.3 C
30.05.2006 22:00 6.5 C 87 % 1015.6 hPa 0.3 l/m 2.7 km/h (1 Bft) W-NW 0.00 h 0 W/m 4.4 C 6.0 C
30.05.2006 23:00 6.2 C 90 % 1015.6 hPa 0.0 l/m 2.0 km/h (1 Bft) W-NW 0.00 h 0 W/m 4.6 C 5.9 C
31.05.2006 00:00 6.1 C 89 % 1015.7 hPa 0.0 l/m 0.3 km/h (0 Bft) W-NW 0.00 h 0 W/m 4.4 C 6.1 C
31.05.2006 01:00 5.8 C 90 % 1015.7 hPa 0.0 l/m 0.1 km/h (0 Bft) N 0.00 h 0 W/m 4.3 C 5.8 C
31.05.2006 02:00 5.6 C 93 % 1015.7 hPa 0.3 l/m 0.1 km/h (0 Bft) N 0.00 h 0 W/m 4.6 C 5.6 C
31.05.2006 03:00 5.6 C 95 % 1015.7 hPa 1.0 l/m 0.0 km/h (0 Bft) N 0.00 h 0 W/m 4.9 C 5.6 C
31.05.2006 04:00 5.4 C 96 % 1015.7 hPa 0.0 l/m 0.2 km/h (0 Bft) N 0.00 h 0 W/m 4.8 C 5.4 C
31.05.2006 05:00 5.0 C 96 % 1015.8 hPa 0.7 l/m 2.6 km/h (1 Bft) W-NW 0.00 h 4 W/m 4.4 C 4.5 C
31.05.2006 06:00 4.5 C 96 % 1016.5 hPa 0.3 l/m 0.9 km/h (0 Bft) W-NW 0.00 h 31 W/m 3.8 C 4.3 C
31.05.2006 07:00 5.0 C 95 % 1016.8 hPa 0.0 l/m 0.0 km/h (0 Bft) N 0.00 h 70 W/m 4.3 C 5.0 C
31.05.2006 08:00 5.3 C 93 % 1017.6 hPa 0.0 l/m 0.2 km/h (0 Bft) N 0.00 h 92 W/m 4.3 C 5.3 C
31.05.2006 09:00 5.5 C 91 % 1017.8 hPa 0.7 l/m 3.1 km/h (1 Bft) NW 0.00 h 137 W/m 4.1 C 4.9 C
31.05.2006 10:00 5.8 C 91 % 1018.3 hPa 0.0 l/m 2.1 km/h (1 Bft) W-NW 0.00 h 196 W/m 4.4 C 5.6 C
31.05.2006 11:00 6.2 C 90 % 1019.0 hPa 0.0 l/m 0.4 km/h (0 Bft) W-NW 0.00 h 186 W/m 4.7 C 6.1 C
31.05.2006 12:00 7.8 C 80 % 1019.5 hPa 0.0 l/m 3.9 km/h (1 Bft) NW 0.13 h 426 W/m 4.6 C 7.3 C
31.05.2006 13:00 8.6 C 73 % 1019.4 hPa 0.0 l/m 1.6 km/h (1 Bft) NW 0.17 h 438 W/m 4.0 C 8.5 C
31.05.2006 14:00 9.8 C 70 % 1019.3 hPa 0.0 l/m 1.4 km/h (1 Bft) O-SO 0.33 h 405 W/m 4.6 C 9.7 C
31.05.2006 15:00 10.0 C 63 % 1019.2 hPa 0.0 l/m 2.4 km/h (1 Bft) NW 0.13 h 297 W/m 3.3 C 9.8 C
31.05.2006 16:00 9.5 C 71 % 1019.3 hPa 0.0 l/m 1.6 km/h (1 Bft) W-NW 0.20 h 275 W/m 4.5 C 9.3 C
31.05.2006 17:00 11.6 C 59 % 1019.0 hPa 0.0 l/m 0.5 km/h (0 Bft) O-SO 0.43 h 341 W/m 3.8 C 11.6 C
31.05.2006 18:00 11.7 C 64 % 1019.0 hPa 0.0 l/m 0.2 km/h (0 Bft) W 0.40 h 269 W/m 5.2 C 11.7 C
31.05.2006 19:00 10.6 C 72 % 1019.8 hPa 0.0 l/m 1.1 km/h (1 Bft) SO 0.03 h 106 W/m 5.6 C 10.5 C
31.05.2006 20:00 9.6 C 77 % 1020.3 hPa 0.0 l/m 0.0 km/h (0 Bft) N 0.13 h 44 W/m 5.8 C 9.6 C
31.05.2006 21:00 8.6 C 78 % 1020.9 hPa 0.0 l/m 0.2 km/h (0 Bft) O-SO 0.00 h 4 W/m 5.0 C 8.6 C
31.05.2006 22:00 7.9 C 86 % 1021.6 hPa 0.0 l/m 0.4 km/h (0 Bft) O-SO 0.00 h 0 W/m 5.7 C 7.9 C
31.05.2006 23:00 7.2 C 87 % 1022.3 hPa 0.0 l/m 1.0 km/h (0 Bft) O-SO 0.00 h 0 W/m 5.3 C 7.2 C
01.06.2006 00:00 7.0 C 87 % 1022.8 hPa 0.0 l/m 0.0 km/h (0 Bft) N 0.00 h 0 W/m 5.0 C 7.0 C
01.06.2006 01:00 6.8 C 87 % 1022.8 hPa 0.0 l/m 0.1 km/h (0 Bft) O-SO 0.00 h 0 W/m 4.8 C 6.8 C
01.06.2006 02:00 6.6 C 89 % 1022.8 hPa 0.0 l/m 0.7 km/h (0 Bft) SO 0.00 h 0 W/m 4.8 C 6.5 C
01.06.2006 03:00 6.4 C 90 % 1022.9 hPa 0.0 l/m 0.8 km/h (0 Bft) S-SO 0.00 h 0 W/m 4.9 C 6.3 C
01.06.2006 04:00 6.3 C 91 % 1022.9 hPa 0.0 l/m 0.2 km/h (0 Bft) SO 0.00 h 0 W/m 4.9 C 6.3 C
01.06.2006 05:00 6.3 C 92 % 1022.9 hPa 0.0 l/m 0.2 km/h (0 Bft) N 0.00 h 3 W/m 5.1 C 6.3 C
01.06.2006 06:00 6.5 C 93 % 1022.9 hPa 0.0 l/m 0.2 km/h (0 Bft) N 0.00 h 24 W/m 5.4 C 6.5 C
01.06.2006 07:00 7.3 C 89 % 1023.1 hPa 0.0 l/m 0.2 km/h (0 Bft) N 0.00 h 104 W/m 5.6 C 7.3 C
01.06.2006 08:00 7.9 C 86 % 1023.7 hPa 0.0 l/m 1.1 km/h (1 Bft) W-NW 0.00 h 79 W/m 5.6 C 7.7 C
01.06.2006 09:00 8.7 C 84 % 1023.6 hPa 0.0 l/m 1.4 km/h (1 Bft) NW 0.00 h 211 W/m 6.1 C 8.6 C
01.06.2006 10:00 10.0 C 73 % 1023.4 hPa 0.0 l/m 5.6 km/h (1 Bft) NW 0.57 h 372 W/m 5.3 C 9.8 C
01.06.2006 11:00 10.7 C 67 % 1022.3 hPa 0.0 l/m 6.5 km/h (2 Bft) W-NW 0.27 h 324 W/m 4.9 C 10.7 C
01.06.2006 12:00 10.2 C 67 % 1022.3 hPa 0.0 l/m 18.0 km/h (3 Bft) NW 0.00 h 264 W/m 4.3 C 9.2 C
01.06.2006 13:00 10.7 C 61 % 1022.3 hPa 0.0 l/m 18.7 km/h (3 Bft) NW 0.00 h 360 W/m 3.6 C 10.7 C
01.06.2006 14:00 9.5 C 67 % 1022.4 hPa 0.0 l/m 18.1 km/h (3 Bft) NW 0.00 h 151 W/m 3.7 C 7.6 C
01.06.2006 15:00 9.2 C 72 % 1023.0 hPa 0.0 l/m 14.2 km/h (3 Bft) W-NW 0.00 h 161 W/m 4.4 C 7.1 C
01.06.2006 16:00 9.2 C 69 % 1022.5 hPa 0.0 l/m 16.3 km/h (3 Bft) W-NW 0.00 h 181 W/m 3.7 C 7.1 C
01.06.2006 17:00 8.9 C 69 % 1022.7 hPa 1.6 l/m 16.7 km/h (3 Bft) NW 0.00 h 103 W/m 3.4 C 6.5 C
01.06.2006 18:00 6.0 C 93 % 1024.0 hPa 2.0 l/m 5.2 km/h (1 Bft) NW 0.00 h 35 W/m 4.9 C 5.0 C
01.06.2006 19:00 6.0 C 96 % 1024.0 hPa 1.0 l/m 0.5 km/h (0 Bft) W-NW 0.00 h 32 W/m 5.4 C 6.0 C
01.06.2006 20:00 5.6 C 97 % 1024.7 hPa 0.3 l/m 0.0 km/h (0 Bft) N 0.00 h 19 W/m 5.3 C 5.6 C
01.06.2006 21:00 5.3 C 97 % 1025.1 hPa 0.0 l/m 0.4 km/h (0 Bft) NW 0.00 h 6 W/m 4.9 C 5.2 C
01.06.2006 22:00 4.8 C 100 % 1025.3 hPa 0.0 l/m 0.0 km/h (0 Bft) N 0.00 h 0 W/m 4.8 C 4.8 C
01.06.2006 23:00 4.0 C 100 % 1026.3 hPa 0.0 l/m 0.0 km/h (0 Bft) N 0.00 h 0 W/m 4.0 C 4.0 C
02.06.2006 00:00 3.4 C 100 % 1026.4 hPa 0.0 l/m 0.0 km/h (0 Bft) N 0.00 h 0 W/m 3.4 C 3.4 C
02.06.2006 01:00 3.3 C 100 % 1026.4 hPa 0.0 l/m 0.0 km/h (0 Bft) N 0.00 h 0 W/m 3.3 C 3.3 C
02.06.2006 02:00 3.8 C 100 % 1026.4 hPa 0.0 l/m 0.0 km/h (0 Bft) N 0.00 h 0 W/m 3.8 C 3.8 C
02.06.2006 03:00 4.0 C 100 % 1026.3 hPa 0.0 l/m 0.0 km/h (0 Bft) N 0.00 h 0 W/m 4.0 C 4.0 C
02.06.2006 04:00 4.2 C 100 % 1026.3 hPa 0.3 l/m 0.0 km/h (0 Bft) N 0.00 h 0 W/m 4.2 C 4.2 C
02.06.2006 05:00 4.5 C 100 % 1025.8 hPa 0.0 l/m 0.0 km/h (0 Bft) N 0.00 h 2 W/m 4.5 C 4.5 C
02.06.2006 06:00 4.7 C 100 % 1025.8 hPa 0.3 l/m 0.0 km/h (0 Bft) N 0.00 h 13 W/m 4.7 C 4.7 C
02.06.2006 07:00 5.2 C 100 % 1026.2 hPa 0.0 l/m 0.0 km/h (0 Bft) N 0.00 h 37 W/m 5.2 C 5.2 C
02.06.2006 08:00 5.6 C 100 % 1026.1 hPa 0.0 l/m 0.0 km/h (0 Bft) N 0.00 h 55 W/m 5.6 C 5.6 C
02.06.2006 09:00 6.3 C 99 % 1026.2 hPa 0.0 l/m 0.0 km/h (0 Bft) N 0.07 h 171 W/m 6.2 C 6.3 C
02.06.2006 10:00 7.2 C 93 % 1026.9 hPa 0.0 l/m 0.1 km/h (0 Bft) N 0.07 h 218 W/m 6.1 C 7.2 C
02.06.2006 11:00 8.8 C 83 % 1026.7 hPa 0.0 l/m 0.4 km/h (0 Bft) NO 0.43 h 434 W/m 6.0 C 8.8 C
02.06.2006 12:00 9.7 C 80 % 1026.6 hPa 0.0 l/m 1.4 km/h (1 Bft) O-SO 0.53 h 538 W/m 6.3 C 9.6 C
02.06.2006 13:00 11.0 C 69 % 1026.4 hPa 0.3 l/m 2.2 km/h (1 Bft) O-SO 0.47 h 493 W/m 5.5 C 11.0 C
02.06.2006 14:00 9.5 C 87 % 1026.6 hPa 2.9 l/m 1.6 km/h (1 Bft) O-SO 0.40 h 436 W/m 7.5 C 9.3 C
02.06.2006 15:00 10.4 C 83 % 1026.5 hPa 0.0 l/m 0.1 km/h (0 Bft) N 0.10 h 327 W/m 7.6 C 10.4 C
02.06.2006 16:00 10.1 C 82 % 1026.5 hPa 0.3 l/m 0.3 km/h (0 Bft) O-NO 0.10 h 278 W/m 7.2 C 10.1 C
02.06.2006 17:00 11.0 C 76 % 1026.4 hPa 2.0 l/m 1.3 km/h (1 Bft) N-NO 0.40 h 295 W/m 6.9 C 10.8 C
02.06.2006 18:00 10.6 C 86 % 1026.4 hPa 0.0 l/m 0.0 km/h (0 Bft) N 0.73 h 334 W/m 8.4 C 10.6 C
02.06.2006 19:00 11.0 C 81 % 1026.6 hPa 0.0 l/m 0.0 km/h (0 Bft) N 0.40 h 149 W/m 7.8 C 11.0 C
02.06.2006 20:00 9.8 C 83 % 1027.5 hPa 0.0 l/m 0.1 km/h (0 Bft) N 0.10 h 31 W/m 7.0 C 9.8 C
02.06.2006 21:00 8.2 C 92 % 1027.8 hPa 0.0 l/m 0.0 km/h (0 Bft) N 0.10 h 11 W/m 7.1 C 8.2 C
02.06.2006 22:00 6.8 C 97 % 1028.0 hPa 0.0 l/m 0.3 km/h (0 Bft) SO 0.00 h 0 W/m 6.3 C 6.8 C
02.06.2006 23:00 5.8 C 100 % 1028.2 hPa 0.0 l/m 0.1 km/h (0 Bft) N 0.00 h 0 W/m 5.8 C 5.8 C
03.06.2006 00:00 5.5 C 100 % 1028.6 hPa 0.0 l/m 0.2 km/h (0 Bft) O-SO 0.00 h 0 W/m 5.5 C 5.5 C
03.06.2006 01:00 4.8 C 100 % 1028.3 hPa 0.0 l/m 0.0 km/h (0 Bft) N 0.00 h 0 W/m 4.8 C 4.8 C
03.06.2006 02:00 4.5 C 100 % 1028.3 hPa 0.0 l/m 0.0 km/h (0 Bft) N 0.00 h 0 W/m 4.5 C 4.5 C
03.06.2006 03:00 4.1 C 100 % 1028.4 hPa 0.0 l/m 0.9 km/h (0 Bft) O-SO 0.00 h 0 W/m 4.1 C 4.0 C
03.06.2006 04:00 4.1 C 100 % 1028.4 hPa 0.0 l/m 0.5 km/h (0 Bft) O-SO 0.00 h 0 W/m 4.1 C 4.1 C
03.06.2006 05:00 4.4 C 100 % 1028.3 hPa 0.0 l/m 0.0 km/h (0 Bft) N 0.00 h 9 W/m 4.4 C 4.4 C
03.06.2006 06:00 4.3 C 100 % 1028.4 hPa 0.0 l/m 0.0 km/h (0 Bft) N 0.00 h 34 W/m 4.3 C 4.3 C
03.06.2006 07:00 4.6 C 100 % 1028.3 hPa 0.0 l/m 0.0 km/h (0 Bft) N 0.00 h 95 W/m 4.6 C 4.6 C
03.06.2006 08:00 5.4 C 100 % 1028.2 hPa 0.0 l/m 0.0 km/h (0 Bft) N 0.37 h 232 W/m 5.4 C 5.4 C
03.06.2006 09:00 7.6 C 95 % 1027.9 hPa 0.0 l/m 0.1 km/h (0 Bft) N 0.87 h 480 W/m 6.8 C 7.6 C
03.06.2006 10:00 11.5 C 74 % 1027.2 hPa 0.0 l/m 1.8 km/h (1 Bft) O-SO 0.73 h 566 W/m 7.0 C 11.5 C
03.06.2006 11:00 14.5 C 58 % 1026.3 hPa 0.0 l/m 5.5 km/h (1 Bft) O-SO 0.60 h 647 W/m 6.2 C 14.5 C
03.06.2006 12:00 15.7 C 49 % 1025.7 hPa 0.0 l/m 5.3 km/h (1 Bft) O-SO 0.47 h 572 W/m 5.0 C 15.7 C
03.06.2006 13:00 16.0 C 45 % 1025.7 hPa 0.0 l/m 1.9 km/h (1 Bft) O-SO 0.63 h 700 W/m 4.1 C 16.0 C
03.06.2006 14:00 17.7 C 42 % 1025.2 hPa 0.0 l/m 0.9 km/h (0 Bft) SO 0.73 h 700 W/m 4.5 C 17.7 C
03.06.2006 15:00 18.6 C 40 % 1024.3 hPa 0.0 l/m 3.2 km/h (1 Bft) O-SO 0.80 h 722 W/m 4.7 C 18.6 C
03.06.2006 16:00 18.0 C 40 % 1024.4 hPa 0.0 l/m 2.1 km/h (1 Bft) W-NW 0.40 h 450 W/m 4.1 C 18.0 C
03.06.2006 17:00 17.0 C 41 % 1024.5 hPa 0.0 l/m 0.2 km/h (0 Bft) W-NW 0.03 h 177 W/m 3.7 C 17.0 C
03.06.2006 18:00 16.6 C 44 % 1024.0 hPa 0.0 l/m 2.0 km/h (1 Bft) W-NW 0.03 h 167 W/m 4.2 C 16.6 C
03.06.2006 19:00 16.0 C 50 % 1023.7 hPa 0.0 l/m 0.5 km/h (0 Bft) W-NW 0.00 h 104 W/m 5.5 C 16.0 C
03.06.2006 20:00 15.0 C 56 % 1023.8 hPa 0.0 l/m 0.0 km/h (0 Bft) N 0.00 h 28 W/m 6.2 C 15.0 C
03.06.2006 21:00 13.6 C 66 % 1024.5 hPa 0.0 l/m 0.1 km/h (0 Bft) N 0.00 h 4 W/m 7.3 C 13.6 C
03.06.2006 22:00 13.3 C 60 % 1025.0 hPa 0.0 l/m 0.3 km/h (0 Bft) NO 0.00 h 0 W/m 5.7 C 13.3 C
03.06.2006 23:00 12.4 C 68 % 1025.2 hPa 0.0 l/m 0.2 km/h (0 Bft) NO 0.00 h 0 W/m 6.6 C 12.4 C
04.06.2006 00:00 11.5 C 78 % 1025.3 hPa 0.0 l/m 0.0 km/h (0 Bft) N 0.00 h 0 W/m 7.8 C 11.5 C
04.06.2006 01:00 11.0 C 86 % 1025.3 hPa 0.0 l/m 0.0 km/h (0 Bft) N 0.00 h 0 W/m 8.8 C 11.0 C
04.06.2006 02:00 10.7 C 89 % 1024.6 hPa 0.0 l/m 0.0 km/h (0 Bft) N 0.00 h 0 W/m 9.0 C 10.7 C
04.06.2006 03:00 10.5 C 91 % 1024.4 hPa 0.0 l/m 0.0 km/h (0 Bft) N 0.00 h 0 W/m 9.1 C 10.5 C
04.06.2006 04:00 10.4 C 90 % 1024.2 hPa 0.0 l/m 0.4 km/h (0 Bft) O-SO 0.00 h 0 W/m 8.8 C 10.4 C
04.06.2006 05:00 10.2 C 92 % 1023.5 hPa 0.0 l/m 0.0 km/h (0 Bft) N 0.00 h 6 W/m 9.0 C 10.2 C
04.06.2006 06:00 10.1 C 94 % 1023.4 hPa 0.0 l/m 0.0 km/h (0 Bft) N 0.00 h 22 W/m 9.2 C 10.1 C
04.06.2006 07:00 10.5 C 92 % 1023.3 hPa 0.0 l/m 0.0 km/h (0 Bft) N 0.00 h 51 W/m 9.3 C 10.5 C
04.06.2006 08:00 10.7 C 90 % 1023.3 hPa 0.0 l/m 0.3 km/h (0 Bft) O-SO 0.00 h 25 W/m 9.2 C 10.7 C
04.06.2006 09:00 11.1 C 91 % 1023.2 hPa 0.0 l/m 0.1 km/h (0 Bft) O-SO 0.00 h 110 W/m 9.7 C 11.1 C
04.06.2006 10:00 12.9 C 80 % 1023.0 hPa 0.0 l/m 0.9 km/h (0 Bft) SO 0.10 h 258 W/m 9.6 C 12.9 C
04.06.2006 11:00 14.5 C 72 % 1022.8 hPa 0.0 l/m 4.8 km/h (1 Bft) SO 0.33 h 405 W/m 9.4 C 14.5 C
04.06.2006 12:00 16.2 C 63 % 1022.0 hPa 0.0 l/m 7.9 km/h (2 Bft) SO 0.37 h 475 W/m 9.2 C 16.2 C
04.06.2006 13:00 17.5 C 55 % 1021.1 hPa 0.0 l/m 8.5 km/h (2 Bft) NW 0.50 h 536 W/m 8.3 C 17.5 C
04.06.2006 14:00 18.7 C 52 % 1020.2 hPa 0.0 l/m 11.3 km/h (2 Bft) NW 0.53 h 578 W/m 8.7 C 18.7 C
04.06.2006 15:00 18.1 C 60 % 1020.2 hPa 0.0 l/m 11.0 km/h (2 Bft) O-SO 0.40 h 417 W/m 10.1 C 18.1 C
04.06.2006 16:00 19.7 C 45 % 1019.2 hPa 0.0 l/m 10.8 km/h (2 Bft) NW 0.53 h 475 W/m 7.2 C 19.7 C
04.06.2006 17:00 20.1 C 44 % 1018.9 hPa 0.0 l/m 14.3 km/h (3 Bft) NW 0.90 h 468 W/m 7.1 C 20.1 C
04.06.2006 18:00 19.5 C 38 % 1019.1 hPa 0.0 l/m 14.4 km/h (3 Bft) NW 0.97 h 312 W/m 4.9 C 19.5 C
04.06.2006 19:00 18.6 C 42 % 1019.9 hPa 0.0 l/m 2.0 km/h (1 Bft) N-NW 0.63 h 198 W/m 5.5 C 18.6 C
04.06.2006 20:00 16.7 C 47 % 1020.4 hPa 0.0 l/m 0.4 km/h (0 Bft) N 0.60 h 61 W/m 5.4 C 16.7 C
04.06.2006 21:00 15.1 C 50 % 1021.3 hPa 0.0 l/m 0.3 km/h (0 Bft) N-NO 0.13 h 12 W/m 4.7 C 15.1 C
04.06.2006 22:00 13.7 C 55 % 1022.4 hPa 0.0 l/m 0.1 km/h (0 Bft) NW 0.00 h 0 W/m 4.9 C 13.7 C
04.06.2006 23:00 12.6 C 61 % 1023.0 hPa 0.0 l/m 2.7 km/h (1 Bft) O-SO 0.00 h 0 W/m 5.4 C 12.6 C
Min-Datum _ 02.06.06 04.06.06 29.05.06 - 29.05.06 - - - 30.05.06 30.05.06
_ Min-Zeit 01:24 17:36 12:04 - 00:00 - - - 17:06 04:26
Minimum _ 2.9 C 34 % 1009.7 hPa - 0.0 km/h (0 Bft) - - - 1.1 C -0.2 C
Max-Datum _ 04.06.06 30.05.06 03.06.06 30.05.06 30.05.06 - 29.05.06 02.06.06 29.05.06 04.06.06
_ Max-Zeit 17:34 01:48 00:18 04:24 15:46 - 14:36 14:46 00:28 17:34
Maximum _ 21.3 C 100 % 1029.3 hPa 5.9 l/m 41.2 km/h
NW (6 Bft)
- 0.03 h 1054 W/m 12.0 C 21.3 C
Durchschnitt _ 9.6 C 81 % 1020.6 hPa #36.6 l/m 3.7 km/h (1 Bft) NW #25:03 h 222 W/m 6.0 C 9.3 C
© Kaiko 2006